createdAt,value
2019-02-19T01:28:58.357Z,2.60
2019-02-19T01:31:58.143Z,2.60
2019-02-19T01:47:17.162Z,2.70
2019-02-19T01:59:30.609Z,2.60
2019-02-19T02:11:45.229Z,2.60
2019-02-19T02:40:34.910Z,2.50
2019-02-19T02:43:10.843Z,2.40
2019-02-19T03:47:49.552Z,2.30
2019-02-19T03:53:46.639Z,2.30
2019-02-19T04:02:49.257Z,2.10
2019-02-19T04:05:48.786Z,1.90
2019-02-19T04:11:53.652Z,2.10
2019-02-19T04:14:21.451Z,2.00
2019-02-19T04:17:08.534Z,2.10
2019-02-19T04:26:19.142Z,2.00
2019-02-19T04:29:06.530Z,2.00
2019-02-19T04:31:34.335Z,2.10
2019-02-19T04:34:02.027Z,2.20
2019-02-19T04:36:49.047Z,2.20
2019-02-19T04:42:24.331Z,2.20
2019-02-19T04:57:31.363Z,2.20
2019-02-19T05:00:36.494Z,2.30
2019-02-19T05:07:10.315Z,2.50
2019-02-19T05:09:57.276Z,2.30
2019-02-19T05:13:02.586Z,2.40
2019-02-19T05:15:42.834Z,2.50
2019-02-19T08:01:49.597Z,5.10
2019-02-19T08:05:19.653Z,5.20
2019-02-19T08:24:12.067Z,5.60
2019-02-19T08:27:00.788Z,5.40
2019-02-19T08:45:01.170Z,5.10
2019-02-19T09:03:11.642Z,5.10
2019-02-19T09:22:23.708Z,5.10
2019-02-19T09:30:52.380Z,5.10
2019-02-19T09:37:12.528Z,5.10
2019-02-19T09:58:28.077Z,5.00
2019-02-19T10:01:15.365Z,5.10
2019-02-19T10:07:56.209Z,5.10
2019-02-19T10:10:36.500Z,5.10
2019-02-19T10:16:20.663Z,5.20
2019-02-19T10:28:33.989Z,5.00
2019-02-19T10:41:01.804Z,4.90
2019-02-19T10:47:35.893Z,4.90
2019-02-19T11:22:02.169Z,5.50
2019-02-19T11:28:51.804Z,5.40
2019-02-19T11:32:34.334Z,5.60
2019-02-19T11:35:06.242Z,5.50
2019-02-19T11:38:04.071Z,5.70
2019-02-19T11:41:25.436Z,5.80
2019-02-19T11:44:17.365Z,6.10
2019-02-19T11:50:13.268Z,6.00
2019-02-19T11:53:03.710Z,6.10
2019-02-19T11:59:32.789Z,6.10
2019-02-19T12:02:11.992Z,6.20
2019-02-19T12:05:09.475Z,6.20
2019-02-19T12:08:09.583Z,6.00
2019-02-19T12:10:41.623Z,6.00
2019-02-19T12:13:19.118Z,6.00
2019-02-19T12:16:32.240Z,6.20
2019-02-19T12:19:05.297Z,6.40
2019-02-19T12:21:37.260Z,6.40
2019-02-19T12:24:24.963Z,6.60
2019-02-19T12:26:56.414Z,6.50
2019-02-19T12:29:45.908Z,6.80
2019-02-19T12:32:18.216Z,7.00
2019-02-19T12:34:59.149Z,7.50
2019-02-19T12:37:42.357Z,7.60
2019-02-19T12:40:14.811Z,7.50
2019-02-19T12:43:48.085Z,7.50
2019-02-19T12:47:10.250Z,7.80
2019-02-19T12:53:44.427Z,8.00
2019-02-19T13:00:21.796Z,8.10
2019-02-19T13:03:04.466Z,8.20
2019-02-19T13:05:45.111Z,8.20
2019-02-19T13:12:42.382Z,8.20
2019-02-19T13:15:29.841Z,8.10
2019-02-19T13:18:01.743Z,8.10
2019-02-19T13:20:30.989Z,7.90
2019-02-19T13:23:13.483Z,7.90
2019-02-19T13:25:50.987Z,8.10
2019-02-19T13:28:19.834Z,7.80
2019-02-19T13:30:54.663Z,8.00
2019-02-19T13:33:27.279Z,8.20
2019-02-19T13:35:56.250Z,8.20
2019-02-19T13:38:49.575Z,8.20
2019-02-19T13:41:48.591Z,8.40
2019-02-19T13:44:52.442Z,8.40
2019-02-19T13:47:39.631Z,8.30
2019-02-19T13:54:40.370Z,8.80
2019-02-19T14:00:59.018Z,8.30
2019-02-19T14:03:40.126Z,8.20
2019-02-19T14:06:36.352Z,8.20
2019-02-19T14:09:15.569Z,8.40
2019-02-19T14:12:06.577Z,8.70
2019-02-19T14:14:45.604Z,8.50
2019-02-19T14:17:22.818Z,8.30
2019-02-19T14:19:55.885Z,8.40
2019-02-19T14:22:42.248Z,8.30
2019-02-19T14:25:44.304Z,8.10
2019-02-19T14:28:35.105Z,8.30
2019-02-19T14:31:43.702Z,8.60
2019-02-19T14:34:33.131Z,8.40
2019-02-19T14:37:27.817Z,8.60
2019-02-19T14:40:18.564Z,8.70
2019-02-19T14:43:38.670Z,8.70
2019-02-19T14:47:13.995Z,9.00
2019-02-19T14:50:14.841Z,8.90
2019-02-19T14:53:06.472Z,9.10
2019-02-19T14:56:08.196Z,9.30
2019-02-19T14:58:59.370Z,9.10
2019-02-19T15:01:47.939Z,9.00
2019-02-19T15:04:42.211Z,9.20
2019-02-19T15:07:58.897Z,9.20
2019-02-19T15:11:09.575Z,9.00
2019-02-19T15:14:32.389Z,9.00
2019-02-19T15:17:38.457Z,8.80
2019-02-19T15:20:36.410Z,8.50
2019-02-19T15:23:36.647Z,8.50
2019-02-19T15:27:07.181Z,8.60
2019-02-19T15:29:37.211Z,8.60
2019-02-19T15:32:43.519Z,8.60
2019-02-19T15:36:01.209Z,8.50
2019-02-19T15:39:40.479Z,8.30
2019-02-19T15:42:48.756Z,8.30
2019-02-19T15:46:01.017Z,8.30
2019-02-19T15:55:23.437Z,8.10
2019-02-19T15:58:31.039Z,8.00
2019-02-19T16:01:48.710Z,7.90
2019-02-19T16:04:48.775Z,7.90
2019-02-19T16:07:41.736Z,7.80
2019-02-19T16:10:50.219Z,7.70
2019-02-19T16:13:48.054Z,7.60
2019-02-19T16:17:27.785Z,7.50
2019-02-19T16:20:22.280Z,7.50
2019-02-19T16:23:07.722Z,7.40
2019-02-19T16:25:59.304Z,7.40
2019-02-19T16:28:52.528Z,7.30
2019-02-19T16:31:47.777Z,7.20
2019-02-19T16:34:56.731Z,7.20
2019-02-19T16:37:55.049Z,7.20
2019-02-19T16:44:44.770Z,6.90
2019-02-19T16:50:07.337Z,6.80
2019-02-19T16:52:53.497Z,6.80
2019-02-19T16:55:36.660Z,6.70
2019-02-19T16:58:18.928Z,6.70
2019-02-19T17:01:16.522Z,6.70
2019-02-19T17:04:41.885Z,6.60
2019-02-19T17:08:29.116Z,6.60
2019-02-19T17:11:25.956Z,6.60
2019-02-19T17:14:47.080Z,6.50
2019-02-19T17:17:48.137Z,6.50
2019-02-19T17:21:07.804Z,6.30
2019-02-19T17:24:33.339Z,6.20
2019-02-19T17:28:02.733Z,6.20
2019-02-19T17:31:40.079Z,6.10
2019-02-19T17:34:44.840Z,6.10
2019-02-19T17:38:14.490Z,6.00
2019-02-19T17:41:15.842Z,5.90
2019-02-19T17:44:09.699Z,5.90
2019-02-19T17:46:59.767Z,5.80
2019-02-19T17:49:52.663Z,5.70
2019-02-19T17:52:55.384Z,5.70
2019-02-19T17:56:10.527Z,5.70
2019-02-19T17:58:59.740Z,5.60
2019-02-19T18:02:23.732Z,5.40
2019-02-19T18:09:04.931Z,5.20
2019-02-19T18:11:48.343Z,5.10
2019-02-19T18:14:41.028Z,5.20
2019-02-19T18:18:00.589Z,5.20
2019-02-19T18:24:48.379Z,5.00
2019-02-19T18:27:22.841Z,5.30
2019-02-19T18:30:09.696Z,5.30
2019-02-19T18:33:00.210Z,5.30
2019-02-19T18:35:49.601Z,5.30
2019-02-19T18:38:27.028Z,5.10
2019-02-19T18:40:58.439Z,5.10
2019-02-19T18:43:29.988Z,5.00
2019-02-19T18:46:00.263Z,5.00
2019-02-19T18:48:30.117Z,5.10
2019-02-19T18:51:00.193Z,5.10
2019-02-19T18:53:34.598Z,5.10
2019-02-19T18:56:02.940Z,5.10
2019-02-19T18:58:34.892Z,5.10
2019-02-19T19:01:12.753Z,5.10
2019-02-19T19:03:45.994Z,5.00
2019-02-19T19:06:20.285Z,5.00
2019-02-19T19:08:52.938Z,5.00
2019-02-19T19:11:24.368Z,5.00
2019-02-19T19:14:02.186Z,4.90
2019-02-19T19:16:42.702Z,4.90
2019-02-19T19:19:23.650Z,4.90
2019-02-19T19:22:18.975Z,4.90
2019-02-19T19:24:50.626Z,4.80
2019-02-19T19:27:21.541Z,4.80
2019-02-19T19:29:51.214Z,4.80
2019-02-19T19:32:27.224Z,4.80
2019-02-19T19:34:57.033Z,4.70
2019-02-19T19:37:27.015Z,4.70
2019-02-19T19:39:59.633Z,4.60
2019-02-19T19:42:30.340Z,4.60
2019-02-19T19:45:22.872Z,4.60
2019-02-19T19:47:57.808Z,4.60
2019-02-19T19:50:31.512Z,4.50
2019-02-19T19:53:14.866Z,4.50
2019-02-19T19:55:50.096Z,4.40
2019-02-19T19:58:26.496Z,4.40
2019-02-19T20:01:05.817Z,4.40
2019-02-19T20:03:41.625Z,4.30
2019-02-19T20:06:11.808Z,4.30
2019-02-19T20:08:46.818Z,4.20
2019-02-19T20:11:20.083Z,4.20
2019-02-19T20:13:49.861Z,4.10
2019-02-19T20:17:04.852Z,4.10
2019-02-19T20:19:32.481Z,4.00
2019-02-19T20:22:11.505Z,3.90
2019-02-19T20:24:50.885Z,3.70
2019-02-19T20:27:25.843Z,3.80
2019-02-19T20:30:05.412Z,3.90
2019-02-19T20:32:37.084Z,3.90
2019-02-19T20:35:06.611Z,3.80
2019-02-19T20:37:53.517Z,3.90
2019-02-19T20:40:16.656Z,3.90
2019-02-19T20:43:04.495Z,4.00
2019-02-19T20:45:44.508Z,3.80
2019-02-19T20:48:17.293Z,3.80
2019-02-19T20:50:51.606Z,3.70
2019-02-19T20:53:20.440Z,3.60
2019-02-19T20:56:19.215Z,3.60
2019-02-19T20:58:52.655Z,3.60
2019-02-19T21:01:38.040Z,3.60
2019-02-19T21:04:20.833Z,3.70
2019-02-19T21:06:54.143Z,3.80
2019-02-19T21:09:57.200Z,3.80
2019-02-19T21:13:09.128Z,3.80
2019-02-19T21:15:41.679Z,3.70
2019-02-19T21:18:14.087Z,3.60
2019-02-19T21:20:43.445Z,3.60
2019-02-19T21:23:25.187Z,3.60
2019-02-19T21:25:55.247Z,3.60
2019-02-19T21:28:25.050Z,3.50
2019-02-19T21:30:53.544Z,3.60
2019-02-19T21:33:21.816Z,3.60
2019-02-19T21:35:52.811Z,3.70
2019-02-19T21:38:27.895Z,3.70
2019-02-19T21:40:57.863Z,3.60
2019-02-19T21:43:29.833Z,3.50
2019-02-19T21:46:03.882Z,3.40
2019-02-19T21:48:37.005Z,3.30
2019-02-19T21:51:08.521Z,3.20
2019-02-19T21:53:39.864Z,3.20
2019-02-19T21:56:11.830Z,3.20
2019-02-19T21:58:44.340Z,3.10
2019-02-19T22:01:12.520Z,2.90
2019-02-19T22:03:45.392Z,2.90
2019-02-19T22:06:15.475Z,2.90
2019-02-19T22:08:44.854Z,2.90
2019-02-19T22:11:23.876Z,2.90
2019-02-19T22:13:52.824Z,2.80
2019-02-19T22:16:25.610Z,2.70
2019-02-19T22:18:56.766Z,2.60
2019-02-19T22:21:53.206Z,2.50
2019-02-19T22:24:39.502Z,2.40
2019-02-19T22:27:11.855Z,2.40
2019-02-19T22:29:48.240Z,2.50
2019-02-19T22:32:18.238Z,2.50
2019-02-19T22:35:02.796Z,2.40
2019-02-19T22:37:37.719Z,2.30
2019-02-19T22:40:12.169Z,2.40
2019-02-19T22:42:47.727Z,2.40
2019-02-19T22:45:29.612Z,2.40
2019-02-19T22:48:00.122Z,2.40
2019-02-19T22:50:33.203Z,2.30
2019-02-19T22:53:24.857Z,2.30
2019-02-19T22:55:58.124Z,2.30
2019-02-19T22:58:26.697Z,2.10
2019-02-19T23:01:09.507Z,2.10
2019-02-19T23:03:39.781Z,2.10
2019-02-19T23:06:13.072Z,2.10
2019-02-19T23:08:41.944Z,2.10
2019-02-19T23:11:21.512Z,2.10
2019-02-19T23:13:53.019Z,2.00
2019-02-19T23:16:23.220Z,2.00
2019-02-19T23:18:54.177Z,2.00
2019-02-19T23:21:23.419Z,1.90
2019-02-19T23:23:52.371Z,1.90
2019-02-19T23:26:22.035Z,1.80
2019-02-19T23:28:51.827Z,1.80
2019-02-19T23:31:24.177Z,1.90
2019-02-19T23:33:52.337Z,1.80
2019-02-19T23:36:32.181Z,1.80
2019-02-19T23:39:11.097Z,1.90
2019-02-19T23:41:40.020Z,1.90
2019-02-19T23:44:08.772Z,1.90
2019-02-19T23:46:38.158Z,1.80
2019-02-19T23:49:10.245Z,1.70
2019-02-19T23:51:49.197Z,1.70
2019-02-19T23:54:18.964Z,1.70
2019-02-19T23:56:48.917Z,1.70
2019-02-19T23:59:18.947Z,1.70
